Time;durP1;ratioP1;P1;durP2;ratioP2;P2;SDS_P1;SDS_P2;PMS_P1;PMS_P2;Temp;Humidity;BMP_temperature;BMP_pressure;BME280_temperature;BME280_humidity;BME280_pressure;Samples;Min_cycle;Max_cycle;Signal;HPM_P1;HPM_P2
2022/11/18 00:00:46;;;;;;;7.90;6.13;;;3.40;75.30;;;;;;5032304;28;20025;-57
2022/11/18 00:03:12;;;;;;;8.65;5.93;;;3.40;75.40;;;;;;5033030;28;20034;-57
2022/11/18 00:05:38;;;;;;;7.72;5.70;;;3.40;75.60;;;;;;5032696;28;20025;-55
2022/11/18 00:08:03;;;;;;;6.20;5.50;;;3.40;75.70;;;;;;5035553;28;20791;-57
2022/11/18 00:10:29;;;;;;;6.65;5.75;;;3.40;75.80;;;;;;5031382;28;20033;-57
2022/11/18 00:15:40;;;;;;;6.63;5.57;;;3.30;75.80;;;;;;5040929;28;20507;-56
2022/11/18 00:18:05;;;;;;;6.65;5.60;;;3.30;75.70;;;;;;5032955;28;20030;-57
2022/11/18 00:20:33;;;;;;;6.90;5.78;;;3.30;75.90;;;;;;5033329;28;20074;-57
2022/11/18 00:22:58;;;;;;;6.32;5.00;;;3.30;76.00;;;;;;5031818;28;20021;-56
2022/11/18 00:25:25;;;;;;;7.00;5.38;;;3.30;76.00;;;;;;5033707;28;20044;-57
2022/11/18 00:27:50;;;;;;;7.60;5.47;;;3.30;76.10;;;;;;5032816;28;20031;-57
2022/11/18 00:30:16;;;;;;;7.55;5.40;;;3.30;76.10;;;;;;5031753;28;20037;-56
2022/11/18 00:32:42;;;;;;;6.32;4.57;;;3.30;75.80;;;;;;5032629;28;20056;-55
2022/11/18 00:35:08;;;;;;;7.45;5.45;;;3.30;75.80;;;;;;5032992;28;20025;-57
2022/11/18 00:37:33;;;;;;;7.10;5.38;;;3.30;76.00;;;;;;5033266;28;20022;-56
2022/11/18 00:39:59;;;;;;;7.32;6.13;;;3.30;75.90;;;;;;5031432;28;20476;-56
2022/11/18 00:45:09;;;;;;;6.70;5.82;;;3.30;75.90;;;;;;5032691;28;20442;-57
2022/11/18 00:47:34;;;;;;;5.25;4.32;;;3.30;75.80;;;;;;5031817;28;20100;-57
2022/11/18 00:50:00;;;;;;;6.95;5.00;;;3.30;75.80;;;;;;5032370;28;20040;-57
2022/11/18 00:52:25;;;;;;;7.03;5.57;;;3.30;75.90;;;;;;5031947;28;20025;-57
2022/11/18 00:54:51;;;;;;;7.45;5.72;;;3.30;75.80;;;;;;5031710;28;20029;-57
2022/11/18 00:57:17;;;;;;;8.18;5.47;;;3.30;75.80;;;;;;5028490;28;20073;-57
2022/11/18 00:59:42;;;;;;;7.45;5.72;;;3.40;75.80;;;;;;5032080;28;20457;-56
2022/11/18 01:02:08;;;;;;;7.50;6.18;;;3.40;75.60;;;;;;5032134;28;20029;-57
2022/11/18 01:04:33;;;;;;;6.88;5.72;;;3.40;75.60;;;;;;5030798;28;20472;-57
2022/11/18 01:06:59;;;;;;;6.97;5.05;;;3.40;75.60;;;;;;5036071;28;20067;-57
2022/11/18 01:09:25;;;;;;;7.20;5.18;;;3.40;75.60;;;;;;5032429;28;20535;-55
2022/11/18 01:14:35;;;;;;;5.85;4.45;;;3.40;75.60;;;;;;5030386;28;20087;-56
2022/11/18 01:17:00;;;;;;;6.22;4.80;;;3.40;75.70;;;;;;5032182;28;20034;-56
2022/11/18 01:19:26;;;;;;;7.35;5.15;;;3.40;75.70;;;;;;5032121;28;20400;-56
2022/11/18 01:21:52;;;;;;;7.22;5.63;;;3.40;75.80;;;;;;5031240;28;20428;-57
2022/11/18 01:24:18;;;;;;;7.43;5.75;;;3.40;75.70;;;;;;5031006;28;20036;-57
2022/11/18 01:26:43;;;;;;;7.25;5.10;;;3.30;75.60;;;;;;5031170;28;20021;-57
2022/11/18 01:29:09;;;;;;;6.53;5.25;;;3.30;75.60;;;;;;5032192;28;20029;-57
2022/11/18 01:31:36;;;;;;;7.22;5.32;;;3.40;75.80;;;;;;5031998;28;20120;-57
2022/11/18 01:34:02;;;;;;;6.95;5.68;;;3.40;75.70;;;;;;5031496;28;20377;-57
2022/11/18 01:36:28;;;;;;;7.00;5.40;;;3.40;75.70;;;;;;5032040;28;20034;-57
2022/11/18 01:38:54;;;;;;;7.68;6.00;;;3.30;75.60;;;;;;5030166;28;20488;-58
2022/11/18 01:41:23;;;;;;;7.68;5.82;;;3.30;75.70;;;;;;5030974;28;20025;-55
2022/11/18 01:44:27;;;;;;;6.95;5.60;;;3.40;75.90;;;;;;5031519;28;20021;-57
2022/11/18 01:46:53;;;;;;;7.45;5.65;;;3.30;75.80;;;;;;5023674;28;20030;-57
2022/11/18 01:49:19;;;;;;;7.05;5.07;;;3.40;76.10;;;;;;5030952;28;20029;-57
2022/11/18 01:51:54;;;;;;;5.68;4.90;;;3.30;76.00;;;;;;5031447;28;20036;-57
2022/11/18 01:54:34;;;;;;;6.22;5.22;;;3.40;76.10;;;;;;5030741;28;20022;-56
2022/11/18 01:57:07;;;;;;;5.88;4.97;;;3.40;76.80;;;;;;5029610;28;20033;-57
2022/11/18 01:59:38;;;;;;;6.82;5.03;;;3.40;76.00;;;;;;5032230;28;20033;-57
2022/11/18 02:02:10;;;;;;;7.93;4.95;;;3.40;76.00;;;;;;5026391;28;21914;-56
2022/11/18 02:04:37;;;;;;;7.57;5.55;;;3.40;75.80;;;;;;5031354;28;20390;-57
2022/11/18 02:07:03;;;;;;;6.32;5.30;;;3.30;75.70;;;;;;5040611;28;20044;-56
2022/11/18 02:09:29;;;;;;;6.95;5.57;;;3.30;75.60;;;;;;5031114;28;20033;-56
2022/11/18 02:11:55;;;;;;;7.55;4.90;;;3.30;75.80;;;;;;5031201;28;20097;-57
2022/11/18 02:14:30;;;;;;;7.43;5.35;;;3.30;76.00;;;;;;5029913;28;20037;-56
2022/11/18 02:17:35;;;;;;;7.15;4.90;;;3.30;76.10;;;;;;5031283;28;20084;-57
2022/11/18 02:20:25;;;;;;;7.22;5.30;;;3.30;75.90;;;;;;5028899;28;20175;-57
2022/11/18 02:23:01;;;;;;;7.00;5.28;;;3.30;76.10;;;;;;5023530;28;20029;-57
2022/11/18 02:26:00;;;;;;;6.22;5.00;;;3.30;76.00;;;;;;5032354;28;20543;-56
2022/11/18 02:28:29;;;;;;;8.55;6.05;;;3.30;75.90;;;;;;5035105;28;20029;-56
2022/11/18 02:31:19;;;;;;;6.03;5.07;;;3.30;75.90;;;;;;5033515;28;20075;-56
2022/11/18 02:34:02;;;;;;;6.85;5.45;;;3.30;75.60;;;;;;5031446;28;20029;-57
2022/11/18 02:36:34;;;;;;;5.78;4.95;;;3.30;75.50;;;;;;5035073;28;20491;-57
2022/11/18 02:39:07;;;;;;;6.82;5.53;;;3.30;75.30;;;;;;5034743;28;20021;-57
2022/11/18 02:41:35;;;;;;;7.30;5.80;;;3.30;75.30;;;;;;5034952;28;20036;-56
2022/11/18 02:44:17;;;;;;;7.38;5.05;;;3.30;75.10;;;;;;5034724;28;20473;-57
2022/11/18 02:46:51;;;;;;;6.03;5.00;;;3.30;75.30;;;;;;5034507;28;20028;-57
2022/11/18 02:49:27;;;;;;;6.35;5.60;;;3.30;75.30;;;;;;5028608;28;20033;-57
2022/11/18 02:51:55;;;;;;;7.13;5.57;;;3.30;75.30;;;;;;5034719;28;20061;-57
2022/11/18 02:54:23;;;;;;;6.03;4.90;;;3.30;75.20;;;;;;5030565;28;20509;-58
2022/11/18 02:56:51;;;;;;;6.47;5.43;;;3.30;75.00;;;;;;5035215;28;20041;-57
2022/11/18 02:59:18;;;;;;;6.38;5.15;;;3.30;74.70;;;;;;5034644;28;20036;-57
2022/11/18 03:01:44;;;;;;;7.25;4.85;;;3.30;74.60;;;;;;5034578;28;20083;-57
2022/11/18 03:04:11;;;;;;;6.55;4.97;;;3.30;74.70;;;;;;5031607;28;20591;-55
2022/11/18 03:06:43;;;;;;;6.38;4.85;;;3.30;74.90;;;;;;5036889;28;20069;-56
2022/11/18 03:09:30;;;;;;;5.40;4.47;;;3.30;75.00;;;;;;5034601;28;20021;-57
2022/11/18 03:12:04;;;;;;;7.47;5.75;;;3.30;74.90;;;;;;5024361;28;20029;-56
2022/11/18 03:14:51;;;;;;;6.72;5.30;;;3.30;74.90;;;;;;5034641;28;20108;-56
2022/11/18 03:17:51;;;;;;;6.25;5.22;;;3.30;74.90;;;;;;5034043;28;20384;-57
2022/11/18 03:20:20;;;;;;;6.25;5.53;;;3.30;74.70;;;;;;5031021;28;20427;-58
2022/11/18 03:22:51;;;;;;;8.63;5.93;;;3.30;75.00;;;;;;5033062;28;20029;-57
2022/11/18 03:25:51;;;;;;;7.63;6.00;;;3.30;75.00;;;;;;5034666;28;20033;-57
2022/11/18 03:28:34;;;;;;;6.10;5.07;;;3.30;74.90;;;;;;5029922;28;20418;-56
2022/11/18 03:31:00;;;;;;;7.60;5.55;;;3.30;74.90;;;;;;5030605;28;20029;-57
2022/11/18 03:33:34;;;;;;;7.20;5.60;;;3.20;74.80;;;;;;5033891;28;20025;-56
2022/11/18 03:36:05;;;;;;;6.03;4.90;;;3.20;74.70;;;;;;5033868;28;20105;-56
2022/11/18 03:38:35;;;;;;;7.07;5.10;;;3.30;74.60;;;;;;5032809;28;20021;-57
2022/11/18 03:41:05;;;;;;;6.40;4.70;;;3.20;74.40;;;;;;5033942;28;20105;-55
2022/11/18 03:43:36;;;;;;;5.85;4.85;;;3.20;74.30;;;;;;5034401;28;20025;-57
2022/11/18 03:46:10;;;;;;;6.50;5.68;;;3.20;74.20;;;;;;5032776;28;20032;-57
2022/11/18 03:48:43;;;;;;;7.18;5.55;;;3.30;74.40;;;;;;5034114;28;20087;-56
2022/11/18 03:51:14;;;;;;;6.18;4.93;;;3.30;74.30;;;;;;5034322;28;20029;-56
2022/11/18 03:53:46;;;;;;;5.80;5.15;;;3.20;74.30;;;;;;5028873;28;20476;-57
2022/11/18 03:56:23;;;;;;;7.03;5.03;;;3.30;74.30;;;;;;5032428;28;20116;-57
2022/11/18 03:59:15;;;;;;;8.20;5.38;;;3.30;74.50;;;;;;5033513;28;20451;-57
2022/11/18 04:01:43;;;;;;;;;;;3.30;74.40;;;;;;5030933;28;20025;-56
2022/11/18 04:04:09;;;;;;;6.28;4.95;;;3.30;74.20;;;;;;5032454;28;19983;-57
2022/11/18 04:06:49;;;;;;;6.32;5.35;;;3.30;74.40;;;;;;5037314;28;20440;-55
2022/11/18 04:09:20;;;;;;;6.72;5.57;;;3.30;74.20;;;;;;5028065;28;20057;-57
2022/11/18 04:12:02;;;;;;;6.20;5.32;;;3.30;74.00;;;;;;5033825;28;20031;-56
2022/11/18 04:14:39;;;;;;;7.28;5.07;;;3.30;74.00;;;;;;5032856;28;20033;-57
2022/11/18 04:17:08;;;;;;;7.43;5.68;;;3.30;74.20;;;;;;5032252;28;20032;-55
2022/11/18 04:19:34;;;;;;;5.32;4.38;;;3.30;74.10;;;;;;5032546;28;20037;-56
2022/11/18 04:22:00;;;;;;;6.72;4.90;;;3.30;74.20;;;;;;5031946;28;20029;-56
2022/11/18 04:24:25;;;;;;;6.90;5.28;;;3.30;74.20;;;;;;5031316;28;20034;-56
2022/11/18 04:26:51;;;;;;;5.80;4.90;;;3.30;74.00;;;;;;5033589;28;20029;-57
2022/11/18 04:29:17;;;;;;;6.13;5.03;;;3.30;73.90;;;;;;5032405;28;20044;-57
2022/11/18 04:31:42;;;;;;;5.35;4.85;;;3.30;74.00;;;;;;5033411;28;20025;-57
2022/11/18 04:34:08;;;;;;;6.20;5.05;;;3.30;74.00;;;;;;5030385;28;20042;-55
2022/11/18 04:36:33;;;;;;;7.07;5.10;;;3.30;74.00;;;;;;5033564;28;20029;-57
2022/11/18 04:38:59;;;;;;;7.80;5.75;;;3.30;73.90;;;;;;5032729;28;20108;-57
2022/11/18 04:41:54;;;;;;;7.20;5.47;;;3.40;73.80;;;;;;5033187;28;20039;-55
2022/11/18 04:44:11;;;;;;;6.50;5.13;;;3.30;73.60;;;;;;5032094;28;20037;-57
2022/11/18 04:46:41;;;;;;;7.07;5.68;;;3.30;73.50;;;;;;5029391;28;20028;-56
2022/11/18 04:49:08;;;;;;;6.65;4.70;;;3.30;73.60;;;;;;5029952;28;20489;-57
2022/11/18 04:51:34;;;;;;;6.88;5.28;;;3.30;73.50;;;;;;5032291;28;20021;-56
2022/11/18 04:54:00;;;;;;;6.93;4.82;;;3.20;73.50;;;;;;5032487;28;20535;-58
2022/11/18 04:56:25;;;;;;;6.68;5.25;;;3.20;73.50;;;;;;5032733;28;20025;-56
2022/11/18 04:58:51;;;;;;;6.40;5.35;;;3.20;73.50;;;;;;5032733;28;20450;-57
2022/11/18 05:01:17;;;;;;;7.03;5.82;;;3.20;73.60;;;;;;5032442;28;20048;-57
2022/11/18 05:03:42;;;;;;;6.78;5.32;;;3.20;73.50;;;;;;5030761;28;20085;-56
2022/11/18 05:06:08;;;;;;;6.90;5.40;;;3.10;73.50;;;;;;5033453;28;20477;-58
2022/11/18 05:08:33;;;;;;;6.15;4.97;;;3.20;73.80;;;;;;5033269;28;20031;-57
2022/11/18 05:12:47;;;;;;;6.80;5.35;;;3.20;73.90;;;;;;5030714;28;20432;-55
2022/11/18 05:13:44;;;;;;;7.38;5.63;;;3.20;74.00;;;;;;5032243;28;20033;-57
2022/11/18 05:16:10;;;;;;;6.95;5.30;;;3.20;73.80;;;;;;5031779;28;20052;-56
2022/11/18 05:18:36;;;;;;;7.03;5.60;;;3.20;73.70;;;;;;5032619;28;20500;-57
2022/11/18 05:21:04;;;;;;;6.68;5.10;;;3.20;73.70;;;;;;5031409;28;20112;-57
2022/11/18 05:23:30;;;;;;;7.00;5.22;;;3.30;73.60;;;;;;5031167;28;20033;-55
2022/11/18 05:25:56;;;;;;;5.95;4.93;;;3.30;73.70;;;;;;5031622;28;20032;-57
2022/11/18 05:28:21;;;;;;;4.95;4.45;;;3.30;73.80;;;;;;5031002;28;20260;-56
2022/11/18 05:30:47;;;;;;;6.07;4.70;;;3.30;73.70;;;;;;5031930;28;20119;-56
2022/11/18 05:33:12;;;;;;;5.97;4.97;;;3.30;73.70;;;;;;5031857;28;20136;-57
2022/11/18 05:35:38;;;;;;;8.73;5.82;;;3.30;73.60;;;;;;5025856;28;20032;-56
2022/11/18 05:38:04;;;;;;;6.15;4.65;;;3.30;73.40;;;;;;5029589;28;20029;-57
2022/11/18 05:40:30;;;;;;;5.93;4.75;;;3.40;73.50;;;;;;5028518;28;20032;-57
2022/11/18 05:43:11;;;;;;;5.55;4.60;;;3.40;73.50;;;;;;5028925;28;20042;-56
2022/11/18 05:45:37;;;;;;;5.93;5.03;;;3.30;73.20;;;;;;5029496;28;20033;-56
2022/11/18 05:48:05;;;;;;;6.00;5.28;;;3.30;73.90;;;;;;5026809;28;20526;-58
2022/11/18 05:50:33;;;;;;;6.95;5.68;;;3.30;73.20;;;;;;5027931;28;20052;-55
2022/11/18 05:52:59;;;;;;;4.90;4.03;;;3.30;73.10;;;;;;5026989;28;20024;-58
2022/11/18 05:55:32;;;;;;;6.88;4.90;;;3.30;73.30;;;;;;5027544;28;20380;-57
2022/11/18 05:57:58;;;;;;;6.05;5.00;;;3.30;73.20;;;;;;5027692;28;20021;-58
2022/11/18 06:00:23;;;;;;;5.43;4.65;;;3.30;73.10;;;;;;5028810;28;20045;-57
2022/11/18 06:02:51;;;;;;;7.28;5.70;;;3.30;73.10;;;;;;5029588;28;20061;-57
2022/11/18 06:05:18;;;;;;;6.05;5.10;;;3.40;73.00;;;;;;5026572;28;20092;-57
2022/11/18 06:07:44;;;;;;;6.32;4.70;;;3.30;72.80;;;;;;5033544;28;20029;-56
2022/11/18 06:10:20;;;;;;;7.53;5.63;;;3.30;73.00;;;;;;5029224;28;20033;-56
2022/11/18 06:12:50;;;;;;;7.95;4.90;;;3.30;73.00;;;;;;5027898;28;20025;-56
2022/11/18 06:15:18;;;;;;;6.43;5.15;;;3.40;72.90;;;;;;5029935;28;20033;-57
2022/11/18 06:17:49;;;;;;;6.78;5.22;;;3.40;72.80;;;;;;5028744;28;20033;-56
2022/11/18 06:20:19;;;;;;;5.80;4.75;;;3.40;73.00;;;;;;5022772;28;20044;-57
2022/11/18 06:22:46;;;;;;;5.50;4.45;;;3.40;72.80;;;;;;5029140;28;20025;-56
2022/11/18 06:25:13;;;;;;;6.38;4.72;;;3.40;72.90;;;;;;5028970;28;20038;-57
2022/11/18 06:27:38;;;;;;;6.03;4.85;;;3.50;73.00;;;;;;5027458;28;20029;-57
2022/11/18 06:30:05;;;;;;;5.25;3.97;;;3.50;72.90;;;;;;5028275;28;20068;-55
2022/11/18 06:32:30;;;;;;;5.78;4.57;;;3.60;72.60;;;;;;5027190;28;20033;-57
2022/11/18 06:34:56;;;;;;;5.18;4.20;;;3.70;72.50;;;;;;5027226;28;20473;-57
2022/11/18 06:37:21;;;;;;;5.85;4.65;;;3.70;72.50;;;;;;5026246;28;20037;-56
2022/11/18 06:39:47;;;;;;;5.82;4.32;;;3.80;72.10;;;;;;5022863;28;20033;-58
2022/11/18 06:43:37;;;;;;;5.60;4.30;;;3.80;71.80;;;;;;5023284;28;20493;-56
2022/11/18 06:44:59;;;;;;;5.00;3.88;;;3.80;71.80;;;;;;5025275;28;20436;-56
2022/11/18 06:47:24;;;;;;;5.18;4.03;;;3.90;72.00;;;;;;5023947;28;20025;-57
2022/11/18 06:49:50;;;;;;;3.97;3.58;;;3.90;72.00;;;;;;5022296;28;20540;-57
2022/11/18 06:52:16;;;;;;;5.05;3.67;;;4.00;71.70;;;;;;5026576;28;20026;-57
2022/11/18 06:54:41;;;;;;;4.60;3.95;;;4.10;71.70;;;;;;5028273;28;20029;-56
2022/11/18 06:57:07;;;;;;;4.38;3.60;;;4.20;71.40;;;;;;5030227;28;20025;-57
2022/11/18 06:59:32;;;;;;;4.70;3.78;;;4.30;71.20;;;;;;5030030;28;20133;-57
2022/11/18 07:01:58;;;;;;;5.88;4.38;;;4.30;71.00;;;;;;5024847;28;20034;-57
2022/11/18 07:04:24;;;;;;;6.00;4.13;;;4.40;71.00;;;;;;5018220;28;20505;-56
2022/11/18 07:06:49;;;;;;;4.45;3.50;;;4.50;70.90;;;;;;5012462;28;20116;-58
2022/11/18 07:09:15;;;;;;;5.80;4.05;;;4.50;71.00;;;;;;5010453;28;20040;-58
2022/11/18 07:11:41;;;;;;;4.32;3.55;;;4.60;70.80;;;;;;5015193;28;20108;-57
2022/11/18 07:14:08;;;;;;;5.03;3.60;;;4.60;70.90;;;;;;5011027;28;20120;-58
2022/11/18 07:16:37;;;;;;;4.70;3.33;;;4.70;70.90;;;;;;5016091;28;20084;-57
2022/11/18 07:19:11;;;;;;;4.43;3.45;;;4.80;70.80;;;;;;5011597;28;20034;-58
2022/11/18 07:21:38;;;;;;;5.03;3.75;;;4.90;70.50;;;;;;5023992;28;20072;-57
2022/11/18 07:24:07;;;;;;;4.53;3.63;;;5.00;71.00;;;;;;5020152;28;20823;-59
2022/11/18 07:26:34;;;;;;;4.35;3.45;;;5.10;70.10;;;;;;5019557;28;20384;-58
2022/11/18 07:29:00;;;;;;;4.03;3.60;;;5.20;70.00;;;;;;5020206;28;20034;-59
2022/11/18 07:31:25;;;;;;;4.57;3.78;;;5.30;69.60;;;;;;5021509;28;20052;-57
2022/11/18 07:33:53;;;;;;;5.40;4.15;;;5.30;69.50;;;;;;5021266;28;20041;-57
2022/11/18 07:36:21;;;;;;;5.57;4.03;;;5.40;69.60;;;;;;5018704;28;20037;-59
2022/11/18 07:38:47;;;;;;;3.88;3.47;;;5.40;69.60;;;;;;5028318;28;20030;-59
2022/11/18 07:41:15;;;;;;;4.88;3.70;;;5.50;69.50;;;;;;5023146;28;20114;-57
2022/11/18 07:43:41;;;;;;;4.53;3.80;;;5.50;69.10;;;;;;5010521;28;20037;-57
2022/11/18 07:46:24;;;;;;;4.20;3.40;;;5.50;69.00;;;;;;5011987;28;20026;-60
2022/11/18 07:48:52;;;;;;;4.18;3.45;;;5.60;69.10;;;;;;5005334;28;20037;-57
2022/11/18 07:51:21;;;;;;;3.90;3.50;;;5.60;69.20;;;;;;5006654;28;20051;-58
2022/11/18 07:53:47;;;;;;;4.07;3.53;;;5.70;68.90;;;;;;5013845;28;20496;-60
2022/11/18 07:56:13;;;;;;;4.40;3.42;;;5.70;68.80;;;;;;5016140;28;20155;-60
2022/11/18 07:58:41;;;;;;;3.33;3.03;;;5.70;68.60;;;;;;5006933;28;20573;-58
2022/11/18 08:01:15;;;;;;;4.97;3.60;;;5.80;68.60;;;;;;5008627;28;20104;-57
2022/11/18 08:03:41;;;;;;;3.97;3.35;;;5.90;68.50;;;;;;5013600;28;20069;-57
2022/11/18 08:06:09;;;;;;;3.30;3.00;;;5.90;68.20;;;;;;5001951;28;20037;-56
2022/11/18 08:08:35;;;;;;;3.65;3.10;;;6.00;67.90;;;;;;5006865;28;20022;-58
2022/11/18 08:11:04;;;;;;;3.45;3.15;;;6.00;67.50;;;;;;5019726;28;20026;-57
2022/11/18 08:13:30;;;;;;;3.10;2.75;;;6.00;67.00;;;;;;5017592;28;20521;-58
2022/11/18 08:15:56;;;;;;;3.13;2.70;;;6.10;66.80;;;;;;5010174;28;20365;-56
2022/11/18 08:18:23;;;;;;;3.25;2.95;;;6.10;66.60;;;;;;5013636;28;20148;-56
2022/11/18 08:20:48;;;;;;;3.65;3.25;;;6.10;66.50;;;;;;5012953;28;20049;-57
2022/11/18 08:23:15;;;;;;;4.07;3.30;;;6.20;66.50;;;;;;5014023;28;20702;-58
2022/11/18 08:25:43;;;;;;;4.93;3.45;;;6.20;66.30;;;;;;5015542;28;20044;-57
2022/11/18 08:28:10;;;;;;;3.47;2.72;;;6.20;66.00;;;;;;5011912;28;20768;-55
2022/11/18 08:30:36;;;;;;;2.92;2.63;;;6.10;65.80;;;;;;5012599;28;20041;-58
2022/11/18 08:33:02;;;;;;;4.05;3.10;;;6.20;65.70;;;;;;5013289;28;20391;-58
2022/11/18 08:35:29;;;;;;;3.30;3.00;;;6.20;65.60;;;;;;5018158;28;20037;-56
2022/11/18 08:37:54;;;;;;;3.78;3.20;;;6.20;65.40;;;;;;5015800;28;20034;-58
2022/11/18 08:40:20;;;;;;;3.53;2.95;;;6.10;65.30;;;;;;5017882;28;20384;-58
2022/11/18 08:42:46;;;;;;;4.72;3.20;;;6.10;65.40;;;;;;5015368;28;20714;-58
2022/11/18 08:45:12;;;;;;;4.47;3.50;;;6.10;65.20;;;;;;5018816;28;20132;-56
2022/11/18 08:47:38;;;;;;;3.97;3.58;;;6.10;65.10;;;;;;5024778;28;20024;-56
2022/11/18 08:50:07;;;;;;;3.80;3.38;;;6.10;65.10;;;;;;5046563;28;20125;-55
2022/11/18 08:52:32;;;;;;;4.30;3.33;;;6.10;65.00;;;;;;5012871;28;20030;-56
2022/11/18 08:54:59;;;;;;;3.70;3.20;;;6.20;64.90;;;;;;5010688;28;20044;-58
2022/11/18 08:57:24;;;;;;;3.85;3.00;;;6.20;64.70;;;;;;5011169;28;20120;-59
2022/11/18 08:59:50;;;;;;;4.05;2.88;;;6.20;64.70;;;;;;5009333;28;20033;-57
2022/11/18 09:02:19;;;;;;;3.08;2.80;;;6.20;64.60;;;;;;5009507;28;20128;-59
2022/11/18 09:04:49;;;;;;;4.60;3.50;;;6.20;64.40;;;;;;5009309;28;20042;-56
2022/11/18 09:07:15;;;;;;;4.72;3.40;;;6.20;64.30;;;;;;5007816;28;20747;-58
2022/11/18 09:09:41;;;;;;;4.03;3.30;;;6.20;64.30;;;;;;5010192;28;21654;-57
2022/11/18 09:12:08;;;;;;;5.32;3.70;;;6.20;64.00;;;;;;5008234;28;20026;-58
2022/11/18 09:14:33;;;;;;;3.90;3.42;;;6.10;63.70;;;;;;5001903;28;20087;-58
2022/11/18 09:16:59;;;;;;;5.40;4.05;;;6.00;63.60;;;;;;5011196;28;20712;-58
2022/11/18 09:19:25;;;;;;;4.45;3.83;;;5.90;63.70;;;;;;5010393;28;20038;-57
2022/11/18 09:21:50;;;;;;;4.90;3.72;;;5.90;64.00;;;;;;5007628;28;20025;-55
2022/11/18 09:24:16;;;;;;;4.47;3.65;;;5.90;64.10;;;;;;5006178;28;20030;-58
2022/11/18 09:26:42;;;;;;;4.50;3.78;;;5.90;64.20;;;;;;5006883;28;20073;-57
2022/11/18 09:29:07;;;;;;;5.50;4.15;;;5.90;64.40;;;;;;5006011;28;20567;-58
2022/11/18 09:31:33;;;;;;;4.32;3.67;;;5.90;64.30;;;;;;5010291;28;20123;-55
2022/11/18 09:34:00;;;;;;;6.03;4.65;;;5.90;64.40;;;;;;5011924;28;20132;-55
2022/11/18 09:36:26;;;;;;;5.03;4.10;;;5.90;64.20;;;;;;5008115;28;20447;-58
2022/11/18 09:38:52;;;;;;;4.68;3.83;;;5.90;64.20;;;;;;5010898;28;20936;-58
2022/11/18 09:41:38;;;;;;;5.15;3.95;;;5.90;64.00;;;;;;5013704;28;20444;-56
2022/11/18 09:44:06;;;;;;;5.45;4.35;;;5.80;64.20;;;;;;5005499;28;20033;-58
2022/11/18 09:46:47;;;;;;;5.35;4.40;;;5.80;64.30;;;;;;5009317;28;20053;-57
2022/11/18 09:49:31;;;;;;;4.63;3.78;;;5.80;64.00;;;;;;5003444;28;20952;-59
2022/11/18 09:52:02;;;;;;;6.00;4.10;;;5.80;64.20;;;;;;5000155;28;20029;-58
2022/11/18 09:54:35;;;;;;;6.15;4.40;;;5.80;64.30;;;;;;5007544;28;20037;-57
2022/11/18 09:57:01;;;;;;;5.40;4.00;;;5.70;64.20;;;;;;5006704;28;20041;-56
2022/11/18 09:59:31;;;;;;;5.15;4.00;;;5.70;64.20;;;;;;5015788;28;20040;-58
2022/11/18 10:02:10;;;;;;;4.40;3.60;;;5.70;64.20;;;;;;4999066;28;20033;-58
2022/11/18 10:04:36;;;;;;;4.57;3.78;;;5.60;64.10;;;;;;5006965;28;20064;-58
2022/11/18 10:07:13;;;;;;;5.25;3.80;;;5.60;64.30;;;;;;5005790;28;20386;-59
2022/11/18 10:09:40;;;;;;;6.93;4.35;;;5.60;64.30;;;;;;5011912;28;20087;-59
2022/11/18 10:12:40;;;;;;;4.50;3.70;;;5.60;64.20;;;;;;5013840;28;20033;-58
2022/11/18 10:15:31;;;;;;;5.88;4.30;;;5.50;64.40;;;;;;4999527;28;20049;-58
2022/11/18 10:18:15;;;;;;;4.93;3.97;;;5.50;64.40;;;;;;5010974;28;20033;-57
2022/11/18 10:21:10;;;;;;;4.40;3.75;;;5.50;64.20;;;;;;5013477;28;20108;-58
2022/11/18 10:24:01;;;;;;;5.03;3.70;;;5.50;64.50;;;;;;5002787;28;20728;-58
2022/11/18 10:26:35;;;;;;;4.55;3.70;;;5.40;64.60;;;;;;5006949;28;20403;-58
2022/11/18 10:29:01;;;;;;;4.57;3.90;;;5.40;64.40;;;;;;5011060;28;20032;-60
2022/11/18 10:31:27;;;;;;;5.10;4.22;;;5.30;64.60;;;;;;5012198;28;20056;-57
2022/11/18 10:34:00;;;;;;;6.40;5.03;;;5.30;64.70;;;;;;5009033;28;21214;-57
2022/11/18 10:36:29;;;;;;;6.50;5.25;;;5.30;64.90;;;;;;5016571;28;20038;-57
2022/11/18 10:39:15;;;;;;;8.55;5.68;;;5.40;65.10;;;;;;5014262;28;20068;-59
2022/11/18 10:41:46;;;;;;;7.85;5.20;;;5.40;65.20;;;;;;5012353;28;20029;-57
2022/11/18 10:44:41;;;;;;;6.45;5.03;;;5.50;65.30;;;;;;5015067;28;20033;-59
2022/11/18 10:47:26;;;;;;;6.07;4.40;;;5.50;65.10;;;;;;5013085;28;20133;-58
2022/11/18 10:49:54;;;;;;;6.50;5.20;;;5.60;65.20;;;;;;5012796;28;20029;-58
2022/11/18 10:52:20;;;;;;;6.63;5.20;;;5.60;65.20;;;;;;5021352;28;20030;-57
2022/11/18 10:55:24;;;;;;;6.35;5.20;;;5.70;65.10;;;;;;5019738;28;20460;-60
2022/11/18 10:57:53;;;;;;;6.35;5.00;;;5.70;65.10;;;;;;5013164;28;20484;-58
2022/11/18 11:00:40;;;;;;;6.70;5.47;;;5.80;65.20;;;;;;5016821;28;20044;-58
2022/11/18 11:03:30;;;;;;;7.55;5.60;;;5.80;65.20;;;;;;5019600;28;20033;-58
2022/11/18 11:06:21;;;;;;;7.80;6.28;;;5.90;65.00;;;;;;5021494;28;20537;-57
2022/11/18 11:09:07;;;;;;;8.17;5.93;;;5.90;64.80;;;;;;5014000;28;21318;-57
2022/11/18 11:11:42;;;;;;;8.90;5.90;;;5.90;65.00;;;;;;5014055;28;20029;-56
2022/11/18 11:14:28;;;;;;;8.77;6.25;;;5.90;65.00;;;;;;5018413;28;20753;-58
2022/11/18 11:17:05;;;;;;;7.13;5.38;;;5.90;64.90;;;;;;5022896;28;20026;-58
2022/11/18 11:19:56;;;;;;;6.80;5.13;;;5.90;64.70;;;;;;5017721;28;20024;-59
2022/11/18 11:22:21;;;;;;;6.80;5.20;;;5.90;64.80;;;;;;5011457;28;20044;-57
2022/11/18 11:24:47;;;;;;;6.75;4.85;;;5.90;64.70;;;;;;5011453;28;20396;-58
2022/11/18 11:27:31;;;;;;;7.72;5.28;;;5.90;64.80;;;;;;5013283;28;21283;-57
2022/11/18 11:30:16;;;;;;;5.57;4.80;;;5.80;64.80;;;;;;5011677;28;20025;-57
2022/11/18 11:33:13;;;;;;;5.95;4.30;;;5.80;65.50;;;;;;5014816;28;20032;-58
2022/11/18 11:36:10;;;;;;;7.63;5.32;;;5.80;65.10;;;;;;5000979;28;20025;-58
2022/11/18 11:39:01;;;;;;;5.25;4.13;;;5.80;64.70;;;;;;5014255;28;20068;-56
2022/11/18 11:41:43;;;;;;;6.13;4.88;;;5.80;64.50;;;;;;5017496;28;20057;-58
2022/11/18 11:44:19;;;;;;;5.63;4.57;;;5.70;64.80;;;;;;5007998;28;21764;-57
2022/11/18 11:50:01;;;;;;;5.70;4.30;;;5.70;65.10;;;;;;5027220;28;20376;-57
2022/11/18 11:52:42;;;;;;;6.13;4.68;;;5.70;65.30;;;;;;5018257;28;20041;-57
2022/11/18 11:55:25;;;;;;;5.10;4.28;;;5.80;65.40;;;;;;5016085;28;20037;-58
2022/11/18 11:58:13;;;;;;;5.90;3.78;;;5.80;65.40;;;;;;5024828;28;20044;-55
2022/11/18 12:00:44;;;;;;;7.15;5.28;;;5.80;65.40;;;;;;5013770;28;20716;-56
2022/11/18 12:03:48;;;;;;;6.65;5.10;;;5.90;65.30;;;;;;5013275;28;20122;-57
2022/11/18 12:06:14;;;;;;;6.38;4.90;;;5.90;65.30;;;;;;5013837;28;20065;-58
2022/11/18 12:08:54;;;;;;;5.68;4.88;;;5.90;65.20;;;;;;5013642;28;20033;-59
2022/11/18 12:11:30;;;;;;;6.18;4.63;;;6.00;65.30;;;;;;5006212;28;20040;-60
2022/11/18 12:14:02;;;;;;;7.28;5.55;;;6.00;65.30;;;;;;5009422;28;20041;-58
2022/11/18 12:16:30;;;;;;;;;;;6.00;65.40;;;;;;5012783;28;20396;-58
2022/11/18 12:18:58;;;;;;;5.70;4.35;;;6.00;65.20;;;;;;5012826;28;20423;-58
2022/11/18 12:21:44;;;;;;;6.97;4.53;;;6.10;65.30;;;;;;5016609;28;20127;-59
2022/11/18 12:24:31;;;;;;;6.82;5.38;;;6.10;65.10;;;;;;5010591;28;20754;-57
2022/11/18 12:27:22;;;;;;;5.85;4.75;;;6.10;65.10;;;;;;5008221;28;20040;-59
2022/11/18 12:29:47;;;;;;;6.60;5.07;;;6.10;64.90;;;;;;4999477;28;20128;-58
2022/11/18 12:32:34;;;;;;;6.93;5.32;;;6.10;65.00;;;;;;5011545;28;20022;-58
2022/11/18 12:35:01;;;;;;;6.80;5.43;;;6.10;65.10;;;;;;5013154;28;20614;-59
2022/11/18 12:37:27;;;;;;;7.35;5.45;;;6.10;64.90;;;;;;5010376;28;20469;-57
2022/11/18 12:39:56;;;;;;;6.95;5.63;;;6.10;64.90;;;;;;5009787;28;20061;-58
2022/11/18 12:45:40;;;;;;;7.70;5.57;;;6.00;64.80;;;;;;4999989;28;21059;-58
2022/11/18 12:48:39;;;;;;;6.57;5.13;;;6.00;64.90;;;;;;5007844;28;20455;-59
2022/11/18 12:51:13;;;;;;;5.20;4.50;;;5.90;64.80;;;;;;5007504;28;20095;-60
2022/11/18 12:53:44;;;;;;;5.57;4.32;;;5.90;64.70;;;;;;5005811;28;20037;-59
2022/11/18 12:56:16;;;;;;;5.68;4.30;;;5.80;64.50;;;;;;5015247;28;20052;-56
2022/11/18 12:58:49;;;;;;;;;;;5.80;64.60;;;;;;5003094;28;20037;-57
2022/11/18 13:01:20;;;;;;;4.97;3.95;;;5.70;64.30;;;;;;5008662;28;19985;-59
2022/11/18 13:03:46;;;;;;;6.00;4.63;;;5.70;64.80;;;;;;5008632;28;20060;-57
2022/11/18 13:06:18;;;;;;;5.72;4.55;;;5.70;64.80;;;;;;5012383;28;20042;-57
2022/11/18 13:08:50;;;;;;;6.25;4.93;;;5.70;64.90;;;;;;5013350;28;20061;-57
2022/11/18 13:19:32;;;;;;;6.05;4.45;;;5.60;65.00;;;;;;5018899;28;20048;-57
2022/11/18 13:24:49;;;;;;;6.95;5.13;;;5.60;64.90;;;;;;5011951;28;20099;-58
2022/11/18 13:28:01;;;;;;;5.50;4.50;;;5.60;64.90;;;;;;5009065;28;20034;-58
2022/11/18 13:30:28;;;;;;;5.47;4.63;;;5.60;65.10;;;;;;4998358;28;20607;-59
2022/11/18 13:32:57;;;;;;;5.95;4.65;;;5.70;65.30;;;;;;5011958;28;20053;-58
2022/11/18 13:35:26;;;;;;;5.88;4.45;;;5.60;65.20;;;;;;5009836;28;20037;-62
2022/11/18 13:38:00;;;;;;;6.30;5.00;;;5.70;65.30;;;;;;5007955;28;20041;-59
2022/11/18 13:40:27;;;;;;;6.07;4.50;;;5.70;65.20;;;;;;5013665;28;20037;-59
2022/11/18 13:42:52;;;;;;;6.40;4.43;;;5.70;65.20;;;;;;5008712;28;20029;-57
2022/11/18 13:45:20;;;;;;;5.80;4.40;;;5.70;65.40;;;;;;5006920;28;20021;-57